createdAt,value
2017-07-06T00:01:19.259Z,31.03
2017-07-06T00:03:46.717Z,36.17
2017-07-06T00:06:14.198Z,34.53
2017-07-06T00:08:42.445Z,33.07
2017-07-06T00:11:09.899Z,37.63
2017-07-06T00:13:37.376Z,37.33
2017-07-06T00:16:04.846Z,39.20
2017-07-06T00:18:32.311Z,30.70
2017-07-06T00:21:00.546Z,35.80
2017-07-06T00:23:28.043Z,38.17
2017-07-06T00:25:56.258Z,43.53
2017-07-06T00:28:23.730Z,44.10
2017-07-06T00:30:51.198Z,43.93
2017-07-06T00:33:18.669Z,38.80
2017-07-06T00:35:46.134Z,35.97
2017-07-06T00:38:14.386Z,39.73
2017-07-06T00:40:41.871Z,38.00
2017-07-06T00:43:10.111Z,35.37
2017-07-06T00:45:37.580Z,41.10
2017-07-06T00:48:05.038Z,39.27
2017-07-06T00:50:32.493Z,34.10
2017-07-06T00:52:59.970Z,39.10
2017-07-06T00:55:28.199Z,40.03
2017-07-06T00:57:55.694Z,40.53
2017-07-06T01:00:23.178Z,49.60
2017-07-06T01:02:50.668Z,44.83
2017-07-06T01:05:18.139Z,35.37
2017-07-06T01:07:45.622Z,36.93
2017-07-06T01:10:13.090Z,43.70
2017-07-06T01:12:40.552Z,43.77
2017-07-06T01:15:08.080Z,36.73
2017-07-06T01:17:35.546Z,43.33
2017-07-06T01:20:03.015Z,44.20
2017-07-06T01:22:30.479Z,43.40
2017-07-06T01:24:58.705Z,37.47
2017-07-06T01:27:26.167Z,40.10
2017-07-06T01:29:53.703Z,44.53
2017-07-06T01:32:21.155Z,44.13
2017-07-06T01:34:48.631Z,44.93
2017-07-06T01:37:16.101Z,38.83
2017-07-06T01:39:43.596Z,36.20
2017-07-06T01:42:11.844Z,36.40
2017-07-06T01:44:39.293Z,42.27
2017-07-06T01:47:06.750Z,44.57
2017-07-06T01:49:34.248Z,43.93
2017-07-06T01:52:02.471Z,43.33
2017-07-06T01:54:30.008Z,40.37
2017-07-06T01:56:57.478Z,39.10
2017-07-06T01:59:24.954Z,40.17
2017-07-06T02:01:52.431Z,48.53
2017-07-06T02:04:19.923Z,50.93
2017-07-06T02:06:47.387Z,50.73
2017-07-06T02:09:14.844Z,55.03
2017-07-06T02:11:42.305Z,61.57
2017-07-06T02:14:09.778Z,42.20
2017-07-06T02:16:37.238Z,62.37
2017-07-06T02:19:04.706Z,60.80
2017-07-06T02:21:32.175Z,69.60
2017-07-06T02:23:59.647Z,49.47
2017-07-06T02:26:27.867Z,53.40
2017-07-06T02:28:55.344Z,54.87
2017-07-06T02:31:22.877Z,66.90
2017-07-06T02:33:50.326Z,59.97
2017-07-06T02:36:17.828Z,58.73
2017-07-06T02:38:45.299Z,67.30
2017-07-06T02:41:12.768Z,52.83
2017-07-06T02:43:41.019Z,55.47
2017-07-06T02:46:08.486Z,58.77
2017-07-06T02:48:35.947Z,57.60
2017-07-06T02:51:03.424Z,60.13
2017-07-06T02:53:30.887Z,54.90
2017-07-06T02:55:58.350Z,50.07
2017-07-06T02:58:25.831Z,53.80
2017-07-06T03:00:53.294Z,53.27
2017-07-06T03:03:20.769Z,56.27
2017-07-06T03:05:48.247Z,59.73
2017-07-06T03:08:16.466Z,51.03
2017-07-06T03:10:43.974Z,55.30
2017-07-06T03:13:18.184Z,65.33
2017-07-06T03:15:45.647Z,57.33
2017-07-06T03:18:13.883Z,49.90
2017-07-06T03:20:41.350Z,66.47
2017-07-06T03:23:08.825Z,57.10
2017-07-06T03:25:36.300Z,59.83
2017-07-06T03:28:04.546Z,57.90
2017-07-06T03:30:32.013Z,61.67
2017-07-06T03:32:59.475Z,55.90
2017-07-06T03:35:27.719Z,64.20
2017-07-06T03:37:55.200Z,53.33
2017-07-06T03:40:22.679Z,58.00
2017-07-06T03:42:50.920Z,51.37
2017-07-06T03:45:18.380Z,68.60
2017-07-06T03:47:45.842Z,58.80
2017-07-06T03:50:13.402Z,57.83
2017-07-06T03:52:40.868Z,52.73
2017-07-06T03:55:08.327Z,53.07
2017-07-06T03:57:36.576Z,59.20
2017-07-06T04:00:04.043Z,54.60
2017-07-06T04:02:31.535Z,62.23
2017-07-06T04:04:59.770Z,80.93
2017-07-06T04:07:27.239Z,60.13
2017-07-06T04:09:54.695Z,60.13
2017-07-06T04:12:22.165Z,62.33
2017-07-06T04:14:50.453Z,81.57
2017-07-06T04:17:18.709Z,59.10
2017-07-06T04:19:46.162Z,59.90
2017-07-06T04:22:13.647Z,52.10
2017-07-06T04:24:41.100Z,44.70
2017-07-06T04:27:08.589Z,59.00
2017-07-06T04:29:36.100Z,40.13
2017-07-06T04:32:04.454Z,32.70
2017-07-06T04:34:32.012Z,38.90
2017-07-06T04:36:59.478Z,35.07
2017-07-06T04:39:26.944Z,39.80
2017-07-06T04:41:54.425Z,23.40
2017-07-06T04:44:22.687Z,48.60
2017-07-06T04:46:50.906Z,20.73
2017-07-06T04:49:18.384Z,20.50
2017-07-06T04:51:45.851Z,23.20
2017-07-06T04:54:13.429Z,20.77
2017-07-06T04:56:40.894Z,21.13
2017-07-06T04:59:09.140Z,23.17
2017-07-06T05:01:36.644Z,24.80
2017-07-06T05:04:04.128Z,21.43
2017-07-06T05:06:31.596Z,23.47
2017-07-06T05:08:59.058Z,20.17
2017-07-06T05:11:26.536Z,23.87
2017-07-06T05:13:54.004Z,22.20
2017-07-06T05:16:22.227Z,22.80
2017-07-06T05:18:49.712Z,25.60
2017-07-06T05:21:17.200Z,21.07
2017-07-06T05:23:44.649Z,33.40
2017-07-06T05:26:12.891Z,29.60
2017-07-06T05:28:40.350Z,31.60
2017-07-06T05:31:07.831Z,31.13
2017-07-06T05:33:36.096Z,32.20
2017-07-06T05:36:03.585Z,30.83
2017-07-06T05:38:31.064Z,32.40
2017-07-06T05:40:58.561Z,32.63
2017-07-06T05:43:26.044Z,32.43
2017-07-06T05:45:53.562Z,28.73
2017-07-06T05:48:21.034Z,28.43
2017-07-06T05:50:48.499Z,37.73
2017-07-06T05:53:15.962Z,31.77
2017-07-06T05:55:43.430Z,31.23
2017-07-06T05:58:11.654Z,33.73
2017-07-06T06:00:39.117Z,33.10
2017-07-06T06:03:06.588Z,31.10
2017-07-06T06:05:34.058Z,27.10
2017-07-06T06:08:01.562Z,25.40
2017-07-06T06:10:29.034Z,16.77
2017-07-06T06:12:56.493Z,13.63
2017-07-06T06:15:23.991Z,15.93
2017-07-06T06:17:51.452Z,15.27
2017-07-06T06:20:19.695Z,15.27
2017-07-06T06:22:47.155Z,16.37
2017-07-06T06:25:14.627Z,14.03
2017-07-06T06:27:42.090Z,15.80
2017-07-06T06:30:10.330Z,15.50
2017-07-06T06:32:37.804Z,18.00
2017-07-06T06:35:05.271Z,16.23
2017-07-06T06:37:32.763Z,17.07
2017-07-06T06:40:00.330Z,14.70
2017-07-06T06:42:27.907Z,15.60
2017-07-06T06:44:55.364Z,15.43
2017-07-06T06:47:22.846Z,17.57
2017-07-06T06:49:50.302Z,16.33
2017-07-06T06:52:17.761Z,13.70
2017-07-06T06:54:45.234Z,14.57
2017-07-06T06:57:12.699Z,14.87
2017-07-06T06:59:40.937Z,14.40
2017-07-06T07:02:08.411Z,14.70
2017-07-06T07:04:35.876Z,15.80
2017-07-06T07:07:03.338Z,17.23
2017-07-06T07:09:31.584Z,14.50
2017-07-06T07:11:59.048Z,14.07
2017-07-06T07:14:27.153Z,14.13
2017-07-06T07:16:55.726Z,17.40
2017-07-06T07:19:24.398Z,16.93
2017-07-06T07:21:52.009Z,13.40
2017-07-06T07:24:21.200Z,15.07
2017-07-06T07:26:50.410Z,15.87
2017-07-06T07:29:18.698Z,14.73
2017-07-06T07:31:47.598Z,15.60
2017-07-06T07:34:15.358Z,12.23
2017-07-06T07:36:42.827Z,11.87
2017-07-06T07:39:13.408Z,17.87
2017-07-06T07:41:41.839Z,15.90
2017-07-06T07:44:09.311Z,19.27
2017-07-06T07:46:36.877Z,16.50
2017-07-06T07:49:05.136Z,21.23
2017-07-06T07:51:32.868Z,16.83
2017-07-06T07:54:00.370Z,12.80
2017-07-06T07:56:27.834Z,17.13
2017-07-06T07:58:55.332Z,14.70
2017-07-06T08:01:22.792Z,18.80
2017-07-06T08:03:50.252Z,15.60
2017-07-06T08:06:17.752Z,13.10
2017-07-06T08:08:45.214Z,15.87
2017-07-06T08:11:12.671Z,19.23
2017-07-06T08:13:40.144Z,25.63
2017-07-06T08:16:07.606Z,12.67
2017-07-06T08:18:35.054Z,14.13
2017-07-06T08:21:02.547Z,11.67
2017-07-06T08:23:30.006Z,12.73
2017-07-06T08:25:57.472Z,12.23
2017-07-06T08:28:24.948Z,8.80
2017-07-06T08:30:52.396Z,7.23
2017-07-06T08:33:19.852Z,17.40
2017-07-06T08:35:47.326Z,10.80
2017-07-06T08:38:14.855Z,12.40
2017-07-06T08:40:42.325Z,12.80
2017-07-06T08:43:09.797Z,10.70
2017-07-06T08:45:37.250Z,11.57
2017-07-06T08:48:04.716Z,8.53
2017-07-06T08:50:32.184Z,9.40
2017-07-06T08:53:00.419Z,8.20
2017-07-06T08:55:27.878Z,6.73
2017-07-06T08:57:55.335Z,6.37
2017-07-06T09:00:22.869Z,8.27
2017-07-06T09:02:50.324Z,10.93
2017-07-06T09:05:17.795Z,9.00
2017-07-06T09:07:45.269Z,7.03
2017-07-06T09:10:12.755Z,5.67
2017-07-06T09:12:40.991Z,5.90
2017-07-06T09:15:08.453Z,9.70
2017-07-06T09:17:35.921Z,9.30
2017-07-06T09:20:03.374Z,11.37
2017-07-06T09:22:30.835Z,10.63
2017-07-06T09:24:58.303Z,9.97
2017-07-06T09:27:25.772Z,9.70
2017-07-06T09:29:53.232Z,8.60
2017-07-06T09:32:20.680Z,7.30
2017-07-06T09:34:48.167Z,9.73
2017-07-06T09:37:15.602Z,7.37
2017-07-06T09:39:43.051Z,6.93
2017-07-06T09:42:11.287Z,6.97
2017-07-06T09:44:38.743Z,8.17
2017-07-06T09:47:06.194Z,13.30
2017-07-06T09:49:33.665Z,4.10
2017-07-06T09:52:01.122Z,4.40
2017-07-06T09:54:28.574Z,6.73
2017-07-06T09:56:56.039Z,5.83
2017-07-06T09:59:23.537Z,4.70
2017-07-06T10:01:50.981Z,6.30
2017-07-06T10:04:19.231Z,6.13
2017-07-06T10:06:46.702Z,5.47
2017-07-06T10:09:14.471Z,9.60
2017-07-06T10:11:42.711Z,6.67
2017-07-06T10:14:10.171Z,9.27
2017-07-06T10:16:37.634Z,6.37
2017-07-06T10:19:05.095Z,5.90
2017-07-06T10:21:32.563Z,5.20
2017-07-06T10:24:00.032Z,4.60
2017-07-06T10:26:28.259Z,7.53
2017-07-06T10:28:55.722Z,4.33
2017-07-06T10:31:23.261Z,4.10
2017-07-06T10:33:50.724Z,4.07
2017-07-06T10:36:18.180Z,3.70
2017-07-06T10:38:45.652Z,2.77
2017-07-06T10:41:13.107Z,2.87
2017-07-06T10:43:40.574Z,2.57
2017-07-06T10:46:08.097Z,3.93
2017-07-06T10:48:35.556Z,2.93
2017-07-06T10:51:03.019Z,2.70
2017-07-06T10:53:30.496Z,3.90
2017-07-06T10:55:57.989Z,3.90
2017-07-06T10:58:25.438Z,6.17
2017-07-06T11:00:52.893Z,3.57
2017-07-06T11:03:20.361Z,10.33
2017-07-06T11:05:47.815Z,3.97
2017-07-06T11:08:15.300Z,4.10
2017-07-06T11:10:42.771Z,7.67
2017-07-06T11:13:10.227Z,5.80
2017-07-06T11:15:37.698Z,3.27
2017-07-06T11:18:06.006Z,4.37
2017-07-06T11:20:33.454Z,3.50
2017-07-06T11:23:00.922Z,2.70
2017-07-06T11:25:28.374Z,3.30
2017-07-06T11:27:55.835Z,2.90
2017-07-06T11:30:23.295Z,6.20
2017-07-06T11:32:50.755Z,5.27
2017-07-06T11:35:18.216Z,4.80
2017-07-06T11:37:45.667Z,6.60
2017-07-06T11:40:13.907Z,7.83
2017-07-06T11:42:41.367Z,6.20
2017-07-06T11:45:08.825Z,6.07
2017-07-06T11:47:36.279Z,8.50
2017-07-06T11:50:03.743Z,6.90
2017-07-06T11:52:31.207Z,6.07
2017-07-06T11:54:58.655Z,9.20
2017-07-06T11:57:26.118Z,19.87
2017-07-06T11:59:53.572Z,9.13
2017-07-06T12:02:21.041Z,8.07
2017-07-06T12:04:48.499Z,7.70
2017-07-06T12:07:17.723Z,6.93
2017-07-06T12:09:45.179Z,6.43
2017-07-06T12:12:12.643Z,5.20
2017-07-06T12:14:40.099Z,8.30
2017-07-06T12:17:07.549Z,6.50
2017-07-06T12:19:35.030Z,7.90
2017-07-06T12:22:02.519Z,10.93
2017-07-06T12:24:29.993Z,7.40
2017-07-06T12:26:58.220Z,5.43
2017-07-06T12:29:25.673Z,7.30
2017-07-06T12:31:53.124Z,7.13
2017-07-06T12:34:20.603Z,5.43
2017-07-06T12:36:48.070Z,4.83
2017-07-06T12:39:15.524Z,6.67
2017-07-06T12:41:42.995Z,6.00
2017-07-06T12:44:10.453Z,5.10
2017-07-06T12:46:37.915Z,5.77
2017-07-06T12:49:05.374Z,6.87
2017-07-06T12:51:33.604Z,5.60
2017-07-06T12:54:01.074Z,8.17
2017-07-06T12:56:28.542Z,5.63
2017-07-06T12:58:56.019Z,6.83
2017-07-06T13:01:23.474Z,7.57
2017-07-06T13:03:50.941Z,8.03
2017-07-06T13:06:18.402Z,7.47
2017-07-06T13:08:46.622Z,9.07
2017-07-06T13:11:14.101Z,11.47
2017-07-06T13:13:41.557Z,10.33
2017-07-06T13:16:09.018Z,9.83
2017-07-06T13:18:36.515Z,7.70
2017-07-06T13:21:04.003Z,10.93
2017-07-06T13:23:31.499Z,9.23
2017-07-06T13:25:59.748Z,9.80
2017-07-06T13:28:27.227Z,15.27
2017-07-06T13:30:54.689Z,14.47
2017-07-06T13:33:22.161Z,12.27
2017-07-06T13:35:49.668Z,12.00
2017-07-06T13:38:17.144Z,13.40
2017-07-06T13:40:44.620Z,15.20
2017-07-06T13:43:12.872Z,14.10
2017-07-06T13:45:40.332Z,9.97
2017-07-06T13:48:07.802Z,11.87
2017-07-06T13:50:35.266Z,17.83
2017-07-06T13:53:03.536Z,15.30
2017-07-06T13:55:31.002Z,17.63
2017-07-06T13:57:59.221Z,21.10
2017-07-06T14:00:26.693Z,12.17
2017-07-06T14:02:54.163Z,12.20
2017-07-06T14:05:21.625Z,13.23
2017-07-06T14:07:49.106Z,15.93
2017-07-06T14:10:17.462Z,17.70
2017-07-06T14:12:44.913Z,18.17
2017-07-06T14:15:12.389Z,14.83
2017-07-06T14:17:39.854Z,12.03
2017-07-06T14:20:07.434Z,13.70
2017-07-06T14:22:34.966Z,14.73
2017-07-06T14:25:02.567Z,13.70
2017-07-06T14:27:30.019Z,20.63
2017-07-06T14:29:57.495Z,12.87
2017-07-06T14:32:24.948Z,11.83
2017-07-06T14:34:52.406Z,10.87
2017-07-06T14:37:19.874Z,18.73
2017-07-06T14:39:47.352Z,13.97
2017-07-06T14:42:14.819Z,10.77
2017-07-06T14:44:42.295Z,9.97
2017-07-06T14:47:10.522Z,11.17
2017-07-06T14:49:37.984Z,12.93
2017-07-06T14:52:05.455Z,11.30
2017-07-06T14:54:32.912Z,11.73
2017-07-06T14:57:00.374Z,13.77
2017-07-06T14:59:27.898Z,11.50
2017-07-06T15:01:55.367Z,10.87
2017-07-06T15:04:22.827Z,11.20
2017-07-06T15:06:50.323Z,13.97
2017-07-06T15:09:18.554Z,13.30
2017-07-06T15:11:46.023Z,19.57
2017-07-06T15:14:13.526Z,10.17
2017-07-06T15:16:41.097Z,11.00
2017-07-06T15:19:08.557Z,14.47
2017-07-06T15:21:36.044Z,14.60
2017-07-06T15:24:03.625Z,10.63
2017-07-06T15:26:31.881Z,13.40
2017-07-06T15:28:59.342Z,14.67
2017-07-06T15:31:26.812Z,10.97
2017-07-06T15:33:54.448Z,14.40
2017-07-06T15:36:21.921Z,10.47
2017-07-06T15:38:49.370Z,11.80
2017-07-06T15:41:16.997Z,9.67
2017-07-06T15:43:44.699Z,12.97
2017-07-06T15:46:12.155Z,13.00
2017-07-06T15:48:39.724Z,14.50
2017-07-06T15:51:07.960Z,9.67
2017-07-06T15:53:35.431Z,10.03
2017-07-06T15:56:04.349Z,19.20
2017-07-06T15:58:31.936Z,8.47
2017-07-06T16:00:59.398Z,8.27
2017-07-06T16:03:26.858Z,11.33
2017-07-06T16:05:54.343Z,10.40
2017-07-06T16:08:21.804Z,9.87
2017-07-06T16:10:49.266Z,14.40
2017-07-06T16:13:16.753Z,11.17
2017-07-06T16:15:44.241Z,9.90
2017-07-06T16:18:11.742Z,8.57
2017-07-06T16:20:39.217Z,11.83
2017-07-06T16:23:07.442Z,14.17
2017-07-06T16:25:34.928Z,7.97
2017-07-06T16:28:02.418Z,10.40
2017-07-06T16:30:29.875Z,13.93
2017-07-06T16:32:58.103Z,15.37
2017-07-06T16:35:25.572Z,15.63
2017-07-06T16:37:53.051Z,17.00
2017-07-06T16:40:20.514Z,17.63
2017-07-06T16:42:48.761Z,13.90
2017-07-06T16:45:16.220Z,10.10
2017-07-06T16:47:43.719Z,11.47
2017-07-06T16:50:11.214Z,13.20
2017-07-06T16:52:38.763Z,13.40
2017-07-06T16:55:08.613Z,13.03
2017-07-06T16:57:36.095Z,14.37
2017-07-06T17:00:04.478Z,12.80
2017-07-06T17:02:32.730Z,11.67
2017-07-06T17:05:00.289Z,9.90
2017-07-06T17:07:27.756Z,13.00
2017-07-06T17:09:55.999Z,12.40
2017-07-06T17:12:23.502Z,11.33
2017-07-06T17:14:50.958Z,13.23
2017-07-06T17:17:18.439Z,20.43
2017-07-06T17:19:45.969Z,21.93
2017-07-06T17:22:13.430Z,14.87
2017-07-06T17:24:40.892Z,16.67
2017-07-06T17:27:08.374Z,16.77
2017-07-06T17:29:35.856Z,15.80
2017-07-06T17:32:03.374Z,16.13
2017-07-06T17:34:30.842Z,21.63
2017-07-06T17:36:58.304Z,23.73
2017-07-06T17:39:25.775Z,22.20
2017-07-06T17:41:53.246Z,21.87
2017-07-06T17:44:20.756Z,20.93
2017-07-06T17:46:48.287Z,21.80
2017-07-06T17:49:15.787Z,24.30
2017-07-06T17:51:43.244Z,25.07
2017-07-06T17:54:10.718Z,25.00
2017-07-06T17:56:38.424Z,23.10
2017-07-06T17:59:06.662Z,31.63
2017-07-06T18:01:34.122Z,22.60
2017-07-06T18:04:01.606Z,22.43
2017-07-06T18:06:29.088Z,26.73
2017-07-06T18:08:56.578Z,21.23
2017-07-06T18:11:24.055Z,22.80
2017-07-06T18:13:51.510Z,23.50
2017-07-06T18:16:19.004Z,21.10
2017-07-06T18:18:46.651Z,22.00
2017-07-06T18:21:14.885Z,23.47
2017-07-06T18:23:42.406Z,21.93
2017-07-06T18:26:10.127Z,20.17
2017-07-06T18:28:37.595Z,25.40
2017-07-06T18:31:05.054Z,19.03
2017-07-06T18:33:32.527Z,20.33
2017-07-06T18:36:00.000Z,21.97
2017-07-06T18:38:27.461Z,20.00
2017-07-06T18:40:54.940Z,22.23
2017-07-06T18:43:22.417Z,22.13
2017-07-06T18:45:49.921Z,21.10
2017-07-06T18:48:17.399Z,19.37
2017-07-06T18:50:44.850Z,19.63
2017-07-06T18:53:12.457Z,23.60
2017-07-06T18:55:39.948Z,24.37
2017-07-06T18:58:07.474Z,31.30
2017-07-06T19:00:34.947Z,24.60
2017-07-06T19:03:02.467Z,23.70
2017-07-06T19:05:37.651Z,23.77
2017-07-06T19:08:05.880Z,35.43
2017-07-06T19:10:33.353Z,23.70
2017-07-06T19:13:00.818Z,21.83
2017-07-06T19:15:28.749Z,28.37
2017-07-06T19:17:56.228Z,28.50
2017-07-06T19:20:23.789Z,28.00
2017-07-06T19:22:51.234Z,26.30
2017-07-06T19:25:18.715Z,27.03
2017-07-06T19:27:46.172Z,32.73
2017-07-06T19:30:14.413Z,27.63
2017-07-06T19:32:41.874Z,33.07
2017-07-06T19:35:09.402Z,30.67
2017-07-06T19:37:36.867Z,34.70
2017-07-06T19:40:04.534Z,35.67
2017-07-06T19:42:32.007Z,34.37
2017-07-06T19:44:59.515Z,41.77
2017-07-06T19:47:27.107Z,37.33
2017-07-06T19:49:54.570Z,32.77
2017-07-06T19:52:22.033Z,44.30
2017-07-06T19:54:49.508Z,33.33
2017-07-06T19:57:16.967Z,35.47
2017-07-06T19:59:44.426Z,38.27
2017-07-06T20:02:12.077Z,38.10
2017-07-06T20:04:39.553Z,29.80
2017-07-06T20:07:07.495Z,27.63
2017-07-06T20:09:34.967Z,27.60
2017-07-06T20:12:02.459Z,31.30
2017-07-06T20:14:29.916Z,28.97
2017-07-06T20:16:57.383Z,24.80
2017-07-06T20:19:24.853Z,22.23
2017-07-06T20:21:52.315Z,22.70
2017-07-06T20:24:19.794Z,21.17
2017-07-06T20:26:47.255Z,21.83
2017-07-06T20:29:14.849Z,33.47
2017-07-06T20:31:42.322Z,45.20
2017-07-06T20:34:09.799Z,27.17
2017-07-06T20:36:37.260Z,25.10
2017-07-06T20:39:05.662Z,19.93
2017-07-06T20:41:33.115Z,19.47
2017-07-06T20:44:01.082Z,24.93
2017-07-06T20:46:28.566Z,26.90
2017-07-06T20:48:56.026Z,27.83
2017-07-06T20:51:23.508Z,28.33
2017-07-06T20:53:50.979Z,27.37
2017-07-06T20:56:18.543Z,25.30
2017-07-06T20:58:46.035Z,28.93
2017-07-06T21:01:13.503Z,31.43
2017-07-06T21:03:41.015Z,32.77
2017-07-06T21:06:08.694Z,36.03
2017-07-06T21:08:36.179Z,35.47
2017-07-06T21:11:03.673Z,30.10
2017-07-06T21:13:31.144Z,29.83
2017-07-06T21:15:58.621Z,28.17
2017-07-06T21:18:26.110Z,27.67
2017-07-06T21:20:53.584Z,19.43
2017-07-06T21:23:21.080Z,17.83
2017-07-06T21:25:48.584Z,15.80
2017-07-06T21:28:16.106Z,16.17
2017-07-06T21:30:43.609Z,20.10
2017-07-06T21:33:11.083Z,20.70
2017-07-06T21:35:38.556Z,17.10
2017-07-06T21:38:06.030Z,24.07
2017-07-06T21:40:33.507Z,25.00
2017-07-06T21:43:00.984Z,21.33
2017-07-06T21:45:29.226Z,18.50
2017-07-06T21:47:56.716Z,16.90
2017-07-06T21:50:24.183Z,18.67
2017-07-06T21:52:51.695Z,18.73
2017-07-06T21:55:19.217Z,14.70
2017-07-06T21:57:46.718Z,14.93
2017-07-06T22:00:14.183Z,13.27
2017-07-06T22:02:41.674Z,14.87
2017-07-06T22:05:09.146Z,12.83
2017-07-06T22:07:36.650Z,13.37
2017-07-06T22:10:04.162Z,15.10
2017-07-06T22:12:31.644Z,17.97
2017-07-06T22:14:59.148Z,19.43
2017-07-06T22:17:27.391Z,20.80
2017-07-06T22:19:54.859Z,20.43
2017-07-06T22:22:22.407Z,29.53
2017-07-06T22:24:49.895Z,26.63
2017-07-06T22:27:18.131Z,28.07
2017-07-06T22:29:45.645Z,30.97
2017-07-06T22:32:13.110Z,31.27
2017-07-06T22:34:40.571Z,43.93
2017-07-06T22:37:08.062Z,49.00
2017-07-06T22:39:35.675Z,36.97
2017-07-06T22:42:03.487Z,35.00
2017-07-06T22:44:31.087Z,36.30
2017-07-06T22:46:59.356Z,37.00
2017-07-06T22:49:27.678Z,37.57
2017-07-06T22:51:55.135Z,38.77
2017-07-06T22:54:22.618Z,24.00
2017-07-06T22:56:50.267Z,30.13
2017-07-06T22:59:17.735Z,21.00
2017-07-06T23:01:45.273Z,29.03
2017-07-06T23:04:12.753Z,30.07
2017-07-06T23:06:40.256Z,30.10
2017-07-06T23:09:07.714Z,39.97
2017-07-06T23:11:35.194Z,36.73
2017-07-06T23:14:02.663Z,36.93
2017-07-06T23:16:30.128Z,31.50
2017-07-06T23:18:57.595Z,44.57
2017-07-06T23:21:25.060Z,39.30
2017-07-06T23:23:52.518Z,17.93
2017-07-06T23:26:19.997Z,8.60
2017-07-06T23:28:47.463Z,13.43
2017-07-06T23:31:14.952Z,19.37
2017-07-06T23:33:42.417Z,27.43
2017-07-06T23:36:09.878Z,27.13
2017-07-06T23:38:37.350Z,23.03
2017-07-06T23:41:04.819Z,15.10
2017-07-06T23:43:32.299Z,15.17
2017-07-06T23:46:00.550Z,20.70
2017-07-06T23:48:28.011Z,19.07
2017-07-06T23:50:55.488Z,20.77
2017-07-06T23:53:22.946Z,26.80
2017-07-06T23:55:50.402Z,23.07
2017-07-06T23:58:17.892Z,19.67
